^^
Datos históricos de la estación: Murcia-Puente Tocinos
Diario Informe para Noviembre 22, 2019 Unidades:  Ingés    Métrico   Ambas
Diario Semanal Mensual Anual
  Máxima: Mínima: Promedio:
Temperatura: 60.3 °F 48.6 °F 53.8 °F
Punto de rocio: 55.8 °F 46.9 °F 51.3 °F
Humedad: 96% 79% 91%
Velocidad viento: 12.5mph 0mph 3.4mph
Racha viento: 26.5mph - -
Viento- - Sur
Presión: 29.8 in 29.4 in -
Precipitación: 0.29 in    
 
 
Tabla de datos para Noviembre 22, 2019
Hora Temperatura Punto de rocio Presión Viento Velocidad viento Racha viento Humedad Intensidad lluvia(por hora) Nubes
00:04 53.4 °F 50.4 °F 29.7 in NO 1.9 mph 3 mph 89% 0 in
00:09 53.4 °F 50.4 °F 29.8 in NO 1.8 mph 1 mph 89.4% 0 in
00:14 53.4 °F 50.5 °F 29.8 in NO 0.5 mph 5 mph 90% 0 in
00:19 53.2 °F 50.4 °F 29.8 in Calm   4.7 mph 90% 0 in
00:24 53.2 °F 50.4 °F 29.8 in Oeste 1.7 mph 5 mph 90% 0 in
00:29 53.2 °F 50.4 °F 29.8 in Oeste 2.4 mph 5 mph 90.4% 0 in
00:34 53.1 °F 50.5 °F 29.8 in Oeste 2 mph 5 mph 91% 0 in
00:39 53.1 °F 50.5 °F 29.8 in OSO 1.8 mph 4.3 mph 91% 0 in
00:44 53.1 °F 50.5 °F 29.8 in SO 1.8 mph 5 mph 91% 0 in
00:49 53.2 °F 50.7 °F 29.8 in SSO 1.8 mph 5 mph 91% 0 in
00:54 53.2 °F 50.7 °F 29.8 in SE 1.6 mph 3.6 mph 91% 0 in
00:59 53.2 °F 50.7 °F 29.7 in SE 1.4 mph 4.6 mph 91% 0 in
01:04 53.2 °F 50.5 °F 29.7 in SE 2.1 mph 5.8 mph 90.4% 0 in
01:09 53.1 °F 50.2 °F 29.7 in SE 2.4 mph 6 mph 90.3% 0 in
01:14 52.9 °F 50.4 °F 29.7 in Sur 2.9 mph 5 mph 91% 0 in
01:19 52.9 °F 50.2 °F 29.7 in SSO 3.1 mph 5 mph 91% 0 in
01:24 52.7 °F 50.2 °F 29.7 in SO 3 mph 5 mph 91% 0 in
01:29 52.7 °F 50.2 °F 29.7 in SSO 2.9 mph 5 mph 91% 0 in
01:34 52.7 °F 50.4 °F 29.7 in Sur 2.9 mph 5 mph 91.6% 0 in
01:39 52.9 °F 50.5 °F 29.7 in Sur 2.9 mph 5.8 mph 92% 0 in
01:44 52.9 °F 50.4 °F 29.7 in SSO 3 mph 6 mph 91.3% 0 in
01:49 52.9 °F 50.4 °F 29.7 in Sur 3.1 mph 5 mph 91% 0 in
01:54 52.9 °F 50.2 °F 29.7 in SSO 2.6 mph 5.2 mph 91% 0 in
01:59 52.9 °F 50.4 °F 29.7 in SSO 2.4 mph 5.9 mph 91% 0 in
02:04 52.9 °F 50.4 °F 29.7 in SSO 2.9 mph 6 mph 91% 0 in
02:09 52.9 °F 50.4 °F 29.7 in SSO 3.1 mph 6 mph 91% 0 in
02:14 52.9 °F 50.4 °F 29.7 in SSO 1.9 mph 1.4 mph 91% 0 in
02:19 52.9 °F 50.4 °F 29.7 in Sur 1.4 mph 4.6 mph 91% 0 in
02:24 52.9 °F 50.2 °F 29.7 in Sur 1.8 mph 5.9 mph 91% 0 in
02:29 52.7 °F 50.2 °F 29.7 in SSO 2 mph 6 mph 91% 0 in
02:34 52.7 °F 50.2 °F 29.7 in SSO 2.7 mph 5 mph 91% 0 in
02:39 52.7 °F 50 °F 29.7 in Sur 2.9 mph 5.2 mph 91% 0 in
02:44 52.7 °F 50 °F 29.7 in Sur 3 mph 5.2 mph 91% 0 in
02:49 52.5 °F 50 °F 29.7 in Sur 3.1 mph 5 mph 90.7% 0 in
02:54 52.5 °F 49.8 °F 29.7 in Sur 3 mph 5 mph 90% 0 in
02:59 52.5 °F 49.8 °F 29.7 in SO 2.9 mph 4 mph 90% 0 in
03:04 52.5 °F 49.6 °F 29.7 in Oeste 2.1 mph 4.6 mph 90% 0 in
03:09 52.5 °F 49.6 °F 29.7 in OSO 1.8 mph 6.2 mph 90% 0 in
03:14 52.3 °F 49.5 °F 29.7 in OSO 2.7 mph 6 mph 90% 0 in
03:19 52.3 °F 49.5 °F 29.7 in OSO 3.1 mph 6 mph 90% 0.01 in
03:24 52.2 °F 49.5 °F 29.7 in OSO 3 mph 5.2 mph 90.6% 0.01 in
03:29 52.2 °F 49.6 °F 29.7 in Oeste 2.9 mph 5 mph 91% 0.01 in
03:34 52.2 °F 49.6 °F 29.7 in Oeste 2.2 mph 4 mph 91% 0.01 in
03:39 52 °F 49.3 °F 29.7 in Sur 2 mph 1.2 mph 90.6% 0.01 in
03:44 52 °F 49.3 °F 29.7 in Sur 0.6 mph 5.4 mph 90.8% 0.01 in
03:49 51.8 °F 49.3 °F 29.7 in Calm   6 mph 91% 0.01 in
03:54 51.8 °F 49.3 °F 29.7 in SSO 2.8 mph 6.9 mph 91% 0.01 in
03:59 51.6 °F 49.1 °F 29.7 in SSO 4 mph 7 mph 91% 0.01 in
04:04 51.4 °F 48.9 °F 29.7 in Sur 3.7 mph 6 mph 91% 0.01 in
04:09 51.4 °F 49.1 °F 29.7 in SSE 3.6 mph 6.9 mph 91.8% 0.01 in
04:14 51.3 °F 49.1 °F 29.7 in SSE 3.1 mph 8.7 mph 92% 0.01 in
04:19 51.3 °F 48.9 °F 29.7 in Sur 2.9 mph 9.2 mph 92% 0.01 in
04:24 51.1 °F 48.7 °F 29.7 in Sur 4.5 mph 9 mph 92% 0 in
04:29 51.1 °F 48.9 °F 29.7 in Sur 5.2 mph 7 mph 92.5% 0 in
04:34 51.1 °F 49.1 °F 29.7 in Sur 4.3 mph 7 mph 93% 0 in
04:39 51.1 °F 49.1 °F 29.7 in SSO 4 mph 5.2 mph 93% 0 in
04:44 51.3 °F 49.3 °F 29.7 in SSO 3.4 mph 6.2 mph 93% 0 in
04:49 51.3 °F 49.3 °F 29.7 in Sur 3.1 mph 6.9 mph 93% 0 in
04:54 51.3 °F 49.3 °F 29.7 in Sur 3.9 mph 7 mph 93% 0 in
04:59 51.3 °F 49.3 °F 29.7 in SSE 4.3 mph 6.2 mph 93% 0 in
05:04 51.3 °F 49.1 °F 29.7 in Sur 3.4 mph 6 mph 92.5% 0 in
05:09 51.3 °F 49.1 °F 29.7 in OSO 3.1 mph 5 mph 92.1% 0 in
05:14 51.3 °F 48.9 °F 29.7 in SO 2.4 mph 5 mph 92% 0 in
05:19 51.3 °F 48.9 °F 29.7 in SSE 2 mph 4.6 mph 92% 0 in
05:24 51.3 °F 48.9 °F 29.7 in SSO 1.9 mph 5 mph 92% 0 in
05:29 51.3 °F 48.9 °F 29.7 in OSO 1.8 mph 5 mph 92% 0 in
05:34 51.3 °F 48.9 °F 29.7 in OSO 1.9 mph 4 mph 92% 0 in
05:39 51.3 °F 48.9 °F 29.7 in OSO 2 mph 2 mph 92% 0 in
05:44 51.1 °F 48.7 °F 29.7 in OSO 0.6 mph 3.5 mph 92% 0 in
05:49 51.1 °F 48.7 °F 29.7 in Calm   3.6 mph 92% 0 in
05:54 51.1 °F 48.7 °F 29.7 in OSO 1.7 mph 4.6 mph 92% 0 in
05:59 51.1 °F 48.7 °F 29.7 in OSO 2.4 mph 5 mph 92% 0 in
06:04 50.9 °F 48.7 °F 29.7 in OSO 0.6 mph   92% 0 in
06:09 50.7 °F 48.6 °F 29.7 in Calm     92% 0 in
06:14 50.7 °F 48.4 °F 29.7 in Calm     92% 0 in
06:19 50.5 °F 48.4 °F 29.7 in Calm     92% 0 in
06:24 50.4 °F 48.2 °F 29.7 in Calm     92% 0 in
06:29 50.4 °F 48 °F 29.7 in Calm     92% 0 in
06:34 50.4 °F 48 °F 29.7 in Calm     92% 0 in
06:39 50.2 °F 47.8 °F 29.7 in Calm   6.2 mph 92% 0 in
06:44 49.6 °F 47.3 °F 29.7 in SSE 1.4 mph 7.4 mph 91.6% 0 in
06:49 49.5 °F 47.1 °F 29.7 in SSE 2 mph 7 mph 92% 0 in
06:54 49.3 °F 47.1 °F 29.7 in SSE 3.4 mph 6 mph 92.6% 0 in
06:59 49.1 °F 47.1 °F 29.7 in SSO 4 mph 6 mph 93% 0 in
07:04 48.9 °F 47.1 °F 29.7 in SO 3.4 mph 5 mph 93% 0 in
07:09 49.1 °F 47.5 °F 29.7 in SSO 3.1 mph 5 mph 93.8% 0 in
07:14 49.3 °F 47.7 °F 29.7 in SE 2.6 mph 5 mph 94% 0 in
07:19 49.3 °F 47.7 °F 29.7 in SE 2.4 mph 5 mph 94% 0 in
07:24 49.3 °F 47.7 °F 29.7 in Sur 2 mph 4.7 mph 94% 0 in
07:29 49.3 °F 47.7 °F 29.7 in SE 1.8 mph 5 mph 94% 0 in
07:34 49.3 °F 47.5 °F 29.7 in SSE 2.7 mph 6.2 mph 93.5% 0 in
07:39 48.9 °F 47.1 °F 29.7 in SSE 3.1 mph 6.9 mph 93.1% 0 in
07:44 48.7 °F 47.1 °F 29.7 in SSE 4.5 mph 8.5 mph 93.7% 0 in
07:49 48.7 °F 47.1 °F 29.7 in Sur 5.2 mph 9 mph 94% 0 in
07:54 48.6 °F 46.9 °F 29.7 in SSO 4.6 mph 7 mph 94% 0 in
07:59 48.7 °F 47.1 °F 29.7 in Sur 4.3 mph 6 mph 94% 0 in
08:04 48.7 °F 47.1 °F 29.7 in SSO 3.8 mph 6.9 mph 94% 0 in
08:09 48.9 °F 47.3 °F 29.7 in Sur 3.6 mph 7 mph 94% 0 in
08:14 48.9 °F 47.3 °F 29.7 in SSE 3.9 mph 6 mph 94% 0 in
08:19 48.9 °F 47.3 °F 29.7 in SE 4 mph 6.9 mph 94% 0 in
08:24 48.9 °F 47.3 °F 29.7 in SE 4 mph 7 mph 94% 0 in
08:29 49.1 °F 47.5 °F 29.7 in Sur 4 mph 6.9 mph 94% 0 in
08:34 49.1 °F 47.5 °F 29.7 in Sur 4 mph 7 mph 94% 0 in
08:39 49.1 °F 47.5 °F 29.7 in SSO 4 mph 6 mph 94% 0 in
08:44 49.3 °F 47.5 °F 29.7 in SSO 3.2 mph 5 mph 94% 0 in
08:49 49.3 °F 47.7 °F 29.7 in SSO 2.9 mph 5 mph 94% 0 in
08:54 49.5 °F 47.8 °F 29.7 in Sur 2.2 mph 5 mph 94% 0 in
08:59 49.6 °F 47.8 °F 29.7 in Sur 2 mph 6.2 mph 93.6% 0 in
09:04 49.6 °F 47.7 °F 29.7 in SSO 2.8 mph 6 mph 93% 0 in
09:09 49.8 °F 47.8 °F 29.7 in SO 3.1 mph 5.9 mph 93% 0 in
09:14 50 °F 48 °F 29.7 in SO 2.6 mph 6 mph 93% 0 in
09:19 50.2 °F 48.2 °F 29.7 in SO 2.4 mph 6 mph 93% 0 in
09:24 50.4 °F 48 °F 29.7 in SSO 3.2 mph 6 mph 92.1% 0 in
09:29 50.4 °F 48 °F 29.7 in SSO 3.6 mph 5.2 mph 92% 0 in
09:34 50.5 °F 48.2 °F 29.7 in SO 3.6 mph 5 mph 91.8% 0 in
09:39 50.5 °F 48 °F 29.7 in Sur 3.6 mph 5.8 mph 91% 0 in
09:44 50.7 °F 48.2 °F 29.7 in SE 3.1 mph 6.2 mph 91% 0 in
09:49 50.7 °F 47.8 °F 29.7 in SSE 2.9 mph 6.2 mph 90.1% 0 in
09:54 50.5 °F 47.8 °F 29.7 in SSE 3.7 mph 8.1 mph 90.2% 0 in
09:59 50.5 °F 48 °F 29.7 in SSE 4 mph 8.1 mph 91% 0 in
10:04 50.5 °F 47.8 °F 29.7 in SSE 5 mph 8.5 mph 91% 0 in
10:09 50.4 °F 47.8 °F 29.7 in SSO 5.4 mph 9 mph 91% 0 in
10:14 50.4 °F 48 °F 29.7 in SO 4.7 mph 8 mph 92% 0 in
10:19 50.4 °F 48 °F 29.7 in SO 4.3 mph 5 mph 92% 0 in
10:24 50.4 °F 48.2 °F 29.7 in SO 1.2 mph 5 mph 92% 0 in
10:29 50.5 °F 48.4 °F 29.7 in Calm   6.2 mph 92% 0 in
10:34 50.7 °F 48.4 °F 29.7 in ONO 2.1 mph 6 mph 92% 0 in
10:39 50.7 °F 48.6 °F 29.7 in ONO 2.9 mph 5 mph 92% 0 in
10:44 50.9 °F 48.7 °F 29.7 in Oeste 2.1 mph 5.8 mph 92% 0 in
10:49 50.9 °F 48.7 °F 29.7 in OSO 1.8 mph 6 mph 92% 0 in
10:54 51.1 °F 48.7 °F 29.7 in OSO 1.8 mph 3 mph 92% 0 in
10:59 51.1 °F 48.7 °F 29.7 in OSO 1.8 mph   92% 0 in
11:04 51.3 °F 48.9 °F 29.7 in OSO 0.5 mph   92% 0.01 in
11:09 51.4 °F 49.1 °F 29.7 in Calm   4.6 mph 91.8% 0.01 in
11:14 51.4 °F 48.9 °F 29.7 in SSE 1.2 mph 5 mph 91% 0.01 in
11:19 51.4 °F 49.1 °F 29.7 in SSE 1.8 mph 5 mph 91.4% 0.01 in
11:24 51.6 °F 49.3 °F 29.7 in SSE 1.9 mph 4 mph 92% 0.01 in
11:29 51.8 °F 49.5 °F 29.7 in SSE 2 mph 3.6 mph 92% 0.01 in
11:34 51.8 °F 49.5 °F 29.7 in Sur 1.6 mph 4.7 mph 92% 0.01 in
11:39 51.8 °F 49.5 °F 29.7 in SSO 1.4 mph 5.9 mph 92% 0.03 in
11:44 51.8 °F 49.5 °F 29.7 in SSO 2.5 mph 6 mph 92% 0.03 in
11:49 51.8 °F 49.5 °F 29.7 in Sur 2.9 mph 5.2 mph 92% 0.03 in
11:54 51.8 °F 49.5 °F 29.7 in SSE 3 mph 5.9 mph 92% 0.03 in
11:59 51.8 °F 49.5 °F 29.7 in SSE 3.1 mph 6.9 mph 91.6% 0.04 in
12:04 52 °F 49.6 °F 29.7 in SE 4 mph 7 mph 92% 0.04 in
12:09 52 °F 49.6 °F 29.7 in ESE 4.3 mph 7.4 mph 92% 0.03 in
12:14 52 °F 49.6 °F 29.7 in ESE 4.3 mph 9.2 mph 92% 0.03 in
12:19 52 °F 49.6 °F 29.7 in SSE 4.3 mph 9 mph 92% 0.03 in
12:24 52.2 °F 50 °F 29.7 in NE 4.1 mph 8 mph 92.6% 0.03 in
12:29 52.2 °F 50.2 °F 29.6 in Este 4 mph 5 mph 92.9% 0.03 in
12:34 52.3 °F 50.2 °F 29.6 in NE 2.5 mph 6.9 mph 92.5% 0.03 in
12:39 52.3 °F 50.2 °F 29.6 in North 1.8 mph 7 mph 92.2% 0.01 in
12:44 52.5 °F 50.5 °F 29.6 in North 3.3 mph 9.2 mph 93% 0.01 in
12:49 52.5 °F 50.5 °F 29.6 in NO 4 mph 9 mph 92.9% 0.01 in
12:54 52.9 °F 50.9 °F 29.6 in NNO 4.2 mph 8.1 mph 93% 0.01 in
12:59 53.1 °F 51.1 °F 29.6 in NO 4.3 mph 8 mph 93% 0.01 in
13:04 53.1 °F 51.1 °F 29.6 in NNO 4.1 mph 8.1 mph 93% 0 in
13:09 53.1 °F 51.1 °F 29.6 in North 4 mph 8 mph 93% 0 in
13:14 53.1 °F 51.1 °F 29.6 in NNE 4 mph 6.9 mph 93% 0 in
13:19 53.1 °F 50.9 °F 29.6 in NE 4 mph 7 mph 92.6% 0 in
13:24 53.1 °F 51.1 °F 29.6 in NNE 4 mph 6 mph 92.9% 0 in
13:29 53.2 °F 51.3 °F 29.6 in NNE 4 mph 5.8 mph 93% 0 in
13:34 53.2 °F 51.3 °F 29.6 in NE 3.2 mph 6 mph 93% 0 in
13:39 53.4 °F 51.4 °F 29.6 in North 2.9 mph 6.2 mph 93% 0 in
13:44 53.4 °F 51.4 °F 29.6 in NE 2.9 mph 6 mph 93% 0 in
13:49 53.6 °F 51.6 °F 29.6 in NE 2.9 mph 5 mph 93% 0 in
13:54 53.8 °F 51.8 °F 29.6 in NE 2.5 mph 5 mph 93% 0 in
13:59 53.8 °F 51.8 °F 29.6 in NNE 2.4 mph 4.6 mph 93% 0 in
14:04 54 °F 51.8 °F 29.6 in NNO 1.7 mph 5 mph 93% 0 in
14:09 54 °F 52 °F 29.6 in Oeste 1.4 mph 2 mph 93% 0 in
14:14 54 °F 52 °F 29.6 in NNO 0.4 mph   93% 0 in
14:19 54.1 °F 52.2 °F 29.6 in Calm   3.6 mph 93% 0 in
14:24 54.1 °F 52.2 °F 29.6 in Calm   5.2 mph 93% 0 in
14:29 54.3 °F 52.3 °F 29.6 in Calm   5 mph 93% 0 in
14:34 54.3 °F 52 °F 29.6 in NE 1.7 mph 5.9 mph 92.1% 0 in
14:39 54.3 °F 52 °F 29.6 in NE 2.4 mph 6 mph 92% 0 in
14:44 54.5 °F 52.3 °F 29.5 in NNE 2.1 mph 5.9 mph 92% 0 in
14:49 54.7 °F 52.3 °F 29.5 in NE 2 mph 6 mph 92% 0 in
14:54 54.9 °F 52.5 °F 29.5 in NNE 3.2 mph 6 mph 92% 0 in
14:59 54.9 °F 52.5 °F 29.5 in NNE 3.6 mph 6 mph 92% 0 in
15:04 54.9 °F 52.7 °F 29.5 in NE 3.6 mph 6 mph 92% 0 in
15:09 55 °F 52.9 °F 29.5 in NNE 3.6 mph 6.2 mph 92.6% 0 in
15:14 55 °F 53.1 °F 29.5 in NE 3.9 mph 6 mph 93% 0 in
15:19 55 °F 53.1 °F 29.5 in NE 4 mph 6.9 mph 93% 0 in
15:24 55.2 °F 53.2 °F 29.5 in NE 4.2 mph 7 mph 93% 0 in
15:29 55.4 °F 53.4 °F 29.5 in Este 4.3 mph 6.2 mph 93% 0 in
15:34 55.6 °F 53.6 °F 29.5 in ENE 3.8 mph 6 mph 93% 0 in
15:39 55.8 °F 53.8 °F 29.5 in Este 3.6 mph 7.4 mph 93% 0 in
15:44 55.9 °F 54 °F 29.5 in NE 3.6 mph 7 mph 93% 0 in
15:49 55.9 °F 54 °F 29.5 in Oeste 3.6 mph 5.9 mph 93% 0 in
15:54 56.1 °F 54.1 °F 29.5 in NNO 3.1 mph 6 mph 93% 0 in
15:59 56.1 °F 54.1 °F 29.5 in NO 2.9 mph 9.7 mph 93% 0 in
16:04 56.7 °F 54.7 °F 29.5 in Sur 3.9 mph 14 mph 93% 0 in
16:09 57.2 °F 54.9 °F 29.5 in Sur 4.3 mph 17.3 mph 91.8% 0 in
16:14 58.5 °F 55 °F 29.5 in Sur 5.8 mph 17.5 mph 88.1% 0 in
16:19 59.5 °F 54.9 °F 29.5 in SSE 6.4 mph 17 mph 84.2% 0 in
16:24 59.9 °F 54.7 °F 29.5 in SSE 7.9 mph 16.1 mph 82.4% 0.01 in
16:29 60.3 °F 54.3 °F 29.5 in SSE 8.5 mph 20.8 mph 80.7% 0.01 in
16:34 60.3 °F 54.1 °F 29.5 in Sur 10.5 mph 26.1 mph 80% 0.01 in
16:39 60.3 °F 53.8 °F 29.5 in Sur 11.4 mph 26.5 mph 79% 0.01 in
16:44 60.3 °F 54 °F 29.5 in SSE 12.2 mph 23.5 mph 79.8% 0.01 in
16:49 60.1 °F 54.1 °F 29.5 in Sur 12.5 mph 23 mph 80.6% 0.01 in
16:54 59.7 °F 54.1 °F 29.5 in SSE 10.9 mph 17.5 mph 81.6% 0.01 in
16:59 59.5 °F 54.1 °F 29.5 in SSE 10.2 mph 17.3 mph 81.9% 0.01 in
17:04 59.5 °F 54 °F 29.5 in Sur 10.2 mph 18.5 mph 81.6% 0.02 in
17:09 59.5 °F 53.8 °F 29.5 in Sur 10.2 mph 19 mph 81% 0.02 in
17:14 59.4 °F 54 °F 29.5 in Sur 9.8 mph 19 mph 81.9% 0.02 in
17:19 59.4 °F 54 °F 29.5 in Sur 9.7 mph 19 mph 82.4% 0.02 in
17:24 59 °F 54 °F 29.5 in Sur 10.4 mph 17.5 mph 83.4% 0.03 in
17:29 59 °F 54.1 °F 29.5 in Sur 10.7 mph 17 mph 84% 0.03 in
17:34 58.8 °F 54.1 °F 29.5 in Sur 10.7 mph 16 mph 84.4% 0.03 in
17:39 58.8 °F 54.3 °F 29.5 in Sur 10.7 mph 17.3 mph 85% 0.04 in
17:44 59 °F 54.3 °F 29.5 in Sur 9.3 mph 17 mph 84.9% 0.04 in
17:49 58.8 °F 54.3 °F 29.5 in Sur 8.7 mph 14 mph 85% 0.06 in
17:54 58.8 °F 54.3 °F 29.5 in SSO 7.8 mph 14 mph 85% 0.06 in
17:59 58.8 °F 54.3 °F 29.5 in Sur 7.4 mph 16.3 mph 85% 0.06 in
18:04 59.2 °F 54.7 °F 29.5 in Sur 8.3 mph 16 mph 85% 0.06 in
18:09 59.2 °F 54.7 °F 29.5 in Sur 8.7 mph 17.3 mph 85% 0.07 in
18:14 59.2 °F 54.9 °F 29.5 in Sur 8.7 mph 17.3 mph 85.7% 0.07 in
18:19 58.8 °F 54.9 °F 29.5 in Sur 8.7 mph 17 mph 86.5% 0.08 in
18:24 58.8 °F 55 °F 29.5 in Sur 7.8 mph 13 mph 87% 0.08 in
18:29 58.6 °F 55 °F 29.5 in Sur 7.4 mph 11.5 mph 87.9% 0.07 in
18:34 58.6 °F 55.2 °F 29.5 in Sur 6.6 mph 12 mph 88% 0.08 in
18:39 58.6 °F 55.2 °F 29.5 in SSE 6.2 mph 11 mph 88% 0.08 in
18:44 58.6 °F 55.2 °F 29.5 in SE 6 mph 10 mph 88% 0.08 in
18:49 58.6 °F 55.2 °F 29.5 in SSE 5.9 mph 10.4 mph 88.4% 0.08 in
18:54 58.6 °F 55.4 °F 29.5 in SSE 5.5 mph 11.5 mph 89% 0.06 in
18:59 58.6 °F 55.4 °F 29.5 in SSE 5.4 mph 12 mph 89% 0.06 in
19:04 58.6 °F 55.4 °F 29.5 in SSE 5.8 mph 9.2 mph 89% 0.06 in
19:09 58.6 °F 55.4 °F 29.5 in SE 5.9 mph 10.4 mph 89% 0.06 in
19:14 58.6 °F 55.4 °F 29.4 in SSE 5.5 mph 10 mph 89% 0.06 in
19:19 58.6 °F 55.4 °F 29.4 in Sur 5.4 mph 9 mph 89% 0.06 in
19:24 58.6 °F 55.4 °F 29.4 in Sur 5.3 mph 10.4 mph 89% 0.06 in
19:29 58.6 °F 55.6 °F 29.4 in SSO 5.2 mph 10.4 mph 89% 0.06 in
19:34 58.8 °F 55.6 °F 29.4 in OSO 5.7 mph 10 mph 89% 0.06 in
19:39 58.6 °F 55.4 °F 29.5 in OSO 5.9 mph 8.1 mph 89% 0.06 in
19:44 58.6 °F 55.6 °F 29.5 in SO 4.3 mph 8 mph 89.6% 0.07 in
19:49 58.5 °F 55.6 °F 29.5 in SO 3.6 mph 6 mph 90% 0.08 in
19:54 58.5 °F 55.6 °F 29.5 in Sur 2.4 mph 5.4 mph 90% 0.09 in
19:59 58.5 °F 55.6 °F 29.4 in SO 2 mph 6.2 mph 90% 0.1 in
20:04 58.3 °F 55.6 °F 29.4 in SO 2.3 mph 6 mph 90.5% 0.1 in
20:09 58.3 °F 55.8 °F 29.4 in SO 2.4 mph   91% 0.1 in
20:14 58.1 °F 55.6 °F 29.4 in SO 0.7 mph   91% 0.08 in
20:19 57.9 °F 55.2 °F 29.4 in Calm   4.3 mph 91% 0.08 in
20:24 57.9 °F 55.2 °F 29.4 in North 1 mph 5 mph 91% 0.08 in
20:29 57.6 °F 55 °F 29.4 in NNO 1.4 mph 7.4 mph 91.3% 0.07 in
20:34 57.2 °F 55 °F 29.4 in North 2.9 mph 7 mph 92% 0.07 in
20:39 57 °F 54.7 °F 29.4 in NNE 3.6 mph 6 mph 92.2% 0.05 in
20:44 56.8 °F 54.9 °F 29.4 in NNE 2.7 mph 5 mph 93% 0.04 in
20:49 56.8 °F 54.9 °F 29.4 in North 2.4 mph 4.6 mph 93.2% 0.03 in
20:54 56.8 °F 55 °F 29.4 in NNO 2 mph 5 mph 94% 0.02 in
20:59 56.8 °F 54.9 °F 29.4 in North 1.8 mph 6.2 mph 93% 0 in
21:04 56.7 °F 54.9 °F 29.4 in NO 2.7 mph 6.9 mph 93.5% 0 in
21:09 56.7 °F 54.9 °F 29.4 in ONO 3.1 mph 7 mph 94% 0 in
21:14 56.3 °F 54.7 °F 29.4 in NO 3.7 mph 8.1 mph 94% 0 in
21:19 56.1 °F 54.5 °F 29.4 in NNO 4 mph 8 mph 94% 0 in
21:24 56.1 °F 54.3 °F 29.4 in NNO 4 mph 7 mph 94% 0 in
21:29 56.1 °F 54.7 °F 29.4 in North 4 mph 5 mph 94.6% 0 in
21:34 56.1 °F 54.7 °F 29.4 in NNO 2.9 mph 5 mph 95% 0 in
21:39 56.1 °F 54.7 °F 29.4 in NNO 2.4 mph 5 mph 95% 0 in
21:44 56.1 °F 54.7 °F 29.4 in NO 2.7 mph 5.2 mph 95% 0 in
21:49 56.1 °F 54.7 °F 29.4 in NO 2.9 mph 5 mph 95% 0 in
21:54 56.1 °F 54.7 °F 29.4 in NNO 2.3 mph 4.6 mph 95% 0 in
21:59 56.1 °F 54.7 °F 29.4 in NNO 2 mph 5 mph 95% 0 in
22:04 55.9 °F 54.5 °F 29.4 in NNO 0.6 mph   95% 0 in
22:09 55.9 °F 54.5 °F 29.4 in Calm   1.4 mph 95% 0 in
22:14 55.8 °F 54.3 °F 29.4 in Calm   1 mph 95% 0 in
22:19 55.8 °F 54.3 °F 29.4 in Calm     95% 0 in
22:24 55.6 °F 54.1 °F 29.4 in Calm   3.6 mph 95% 0 in
22:29 55.4 °F 54.1 °F 29.4 in Calm   4 mph 95% 0 in
22:34 55.2 °F 53.8 °F 29.4 in Calm     95% 0 in
22:39 55.2 °F 53.8 °F 29.4 in Calm   3.6 mph 95% 0 in
22:44 55 °F 53.6 °F 29.4 in SE 0.9 mph 4.6 mph 95% 0 in
22:49 54.9 °F 53.6 °F 29.4 in SE 1.4 mph 5 mph 95% 0.01 in
22:54 54.9 °F 53.4 °F 29.4 in SE 1.4 mph   95% 0.01 in
22:59 54.7 °F 53.2 °F 29.4 in SE 1.4 mph   95.1% 0.01 in
23:04 54.7 °F 53.4 °F 29.4 in SE 0.4 mph   95.3% 0.01 in
23:09 54.7 °F 53.6 °F 29.4 in Calm     95.9% 0.01 in
23:14 54.7 °F 53.6 °F 29.4 in Calm     96% 0.01 in
23:19 54.7 °F 53.6 °F 29.4 in Calm     96% 0.01 in
23:24 54.7 °F 53.6 °F 29.4 in Calm     96% 0.01 in
23:29 54.9 °F 53.8 °F 29.4 in Calm   4.6 mph 96% 0.01 in
23:34 54.9 °F 53.6 °F 29.4 in SE 1.2 mph 5 mph 96% 0.01 in
23:39 54.5 °F 53.2 °F 29.4 in SE 1.8 mph 5 mph 95.4% 0.01 in
23:44 54.3 °F 53.2 °F 29.4 in SE 1.9 mph 6.9 mph 95.9% 0.01 in
23:49 54.1 °F 53.1 °F 29.4 in SE 2 mph 7 mph 96% 0.01 in
23:54 54.1 °F 53.1 °F 29.4 in SE 3.1 mph 7 mph 96% 0 in
23:59 54.1 °F 53.1 °F 29.4 in SE 3.6 mph 3 mph 96% 0 in
Murcia-Puente Tocinos, España
Compliments of Weather Underground - 3 mb

La estación de MeteoMurcia.com, publica sus datos en los siguientes proyectos:

Weather Underground PWS IMURCIAP2 Meteoclimatic www.awekas.at

W3Counter
Web Analytics